sensor_id;sensor_type;location;lat;lon;timestamp;P1;durP1;ratioP1;P2;durP2;ratioP2
22113;SDS011;11223;49.968;9.062;2022-11-03T00:01:01;10.18;;;4.75;;
22113;SDS011;11223;49.968;9.062;2022-11-03T00:03:26;6.90;;;3.90;;
22113;SDS011;11223;49.968;9.062;2022-11-03T00:05:52;6.00;;;3.53;;
22113;SDS011;11223;49.968;9.062;2022-11-03T00:08:34;4.45;;;4.05;;
22113;SDS011;11223;49.968;9.062;2022-11-03T00:11:09;6.30;;;3.97;;
22113;SDS011;11223;49.968;9.062;2022-11-03T00:13:39;3.70;;;3.25;;
22113;SDS011;11223;49.968;9.062;2022-11-03T00:16:06;4.40;;;3.15;;
22113;SDS011;11223;49.968;9.062;2022-11-03T00:18:34;7.00;;;5.00;;
22113;SDS011;11223;49.968;9.062;2022-11-03T00:21:00;6.33;;;3.80;;
22113;SDS011;11223;49.968;9.062;2022-11-03T00:23:28;9.80;;;4.18;;
22113;SDS011;11223;49.968;9.062;2022-11-03T00:26:17;5.45;;;3.78;;
22113;SDS011;11223;49.968;9.062;2022-11-03T00:28:44;6.07;;;3.75;;
22113;SDS011;11223;49.968;9.062;2022-11-03T00:31:12;7.32;;;3.35;;
22113;SDS011;11223;49.968;9.062;2022-11-03T00:33:38;8.13;;;3.05;;
22113;SDS011;11223;49.968;9.062;2022-11-03T00:36:05;5.20;;;3.97;;
22113;SDS011;11223;49.968;9.062;2022-11-03T00:38:32;6.57;;;3.35;;
22113;SDS011;11223;49.968;9.062;2022-11-03T00:40:59;6.75;;;3.60;;
22113;SDS011;11223;49.968;9.062;2022-11-03T00:43:26;5.00;;;3.75;;
22113;SDS011;11223;49.968;9.062;2022-11-03T00:45:54;9.93;;;4.20;;
22113;SDS011;11223;49.968;9.062;2022-11-03T00:48:20;6.63;;;3.40;;
22113;SDS011;11223;49.968;9.062;2022-11-03T00:51:12;8.25;;;4.22;;
22113;SDS011;11223;49.968;9.062;2022-11-03T00:53:44;6.35;;;3.13;;
22113;SDS011;11223;49.968;9.062;2022-11-03T00:56:12;4.65;;;3.28;;
22113;SDS011;11223;49.968;9.062;2022-11-03T00:58:43;7.30;;;2.85;;
22113;SDS011;11223;49.968;9.062;2022-11-03T01:01:10;7.53;;;3.83;;
22113;SDS011;11223;49.968;9.062;2022-11-03T01:03:44;4.65;;;3.38;;
22113;SDS011;11223;49.968;9.062;2022-11-03T01:06:30;8.18;;;3.20;;
22113;SDS011;11223;49.968;9.062;2022-11-03T01:09:16;6.10;;;3.28;;
22113;SDS011;11223;49.968;9.062;2022-11-03T01:11:41;14.45;;;4.88;;
22113;SDS011;11223;49.968;9.062;2022-11-03T01:14:15;7.90;;;3.50;;
22113;SDS011;11223;49.968;9.062;2022-11-03T01:16:41;6.43;;;3.00;;
22113;SDS011;11223;49.968;9.062;2022-11-03T01:19:06;7.60;;;3.57;;
22113;SDS011;11223;49.968;9.062;2022-11-03T01:21:32;3.77;;;3.30;;
22113;SDS011;11223;49.968;9.062;2022-11-03T01:24:00;4.03;;;3.55;;
22113;SDS011;11223;49.968;9.062;2022-11-03T01:26:26;3.85;;;3.13;;
22113;SDS011;11223;49.968;9.062;2022-11-03T01:28:52;6.33;;;3.50;;
22113;SDS011;11223;49.968;9.062;2022-11-03T01:31:19;3.47;;;3.10;;
22113;SDS011;11223;49.968;9.062;2022-11-03T01:33:48;7.45;;;3.85;;
22113;SDS011;11223;49.968;9.062;2022-11-03T01:36:15;4.60;;;2.70;;
22113;SDS011;11223;49.968;9.062;2022-11-03T01:38:42;7.55;;;3.88;;
22113;SDS011;11223;49.968;9.062;2022-11-03T01:41:09;6.97;;;2.60;;
22113;SDS011;11223;49.968;9.062;2022-11-03T01:43:40;6.55;;;3.42;;
22113;SDS011;11223;49.968;9.062;2022-11-03T01:46:16;5.43;;;3.25;;
22113;SDS011;11223;49.968;9.062;2022-11-03T01:48:47;5.85;;;3.30;;
22113;SDS011;11223;49.968;9.062;2022-11-03T01:51:21;5.50;;;3.30;;
22113;SDS011;11223;49.968;9.062;2022-11-03T01:53:49;5.68;;;5.07;;
22113;SDS011;11223;49.968;9.062;2022-11-03T01:56:17;5.70;;;3.03;;
22113;SDS011;11223;49.968;9.062;2022-11-03T01:58:45;4.70;;;3.17;;
22113;SDS011;11223;49.968;9.062;2022-11-03T02:01:13;3.00;;;2.70;;
22113;SDS011;11223;49.968;9.062;2022-11-03T02:03:40;5.00;;;3.30;;
22113;SDS011;11223;49.968;9.062;2022-11-03T02:06:10;3.80;;;3.38;;
22113;SDS011;11223;49.968;9.062;2022-11-03T02:08:53;4.60;;;3.45;;
22113;SDS011;11223;49.968;9.062;2022-11-03T02:11:27;7.10;;;3.53;;
22113;SDS011;11223;49.968;9.062;2022-11-03T02:14:12;5.57;;;3.33;;
22113;SDS011;11223;49.968;9.062;2022-11-03T02:16:39;8.57;;;3.15;;
22113;SDS011;11223;49.968;9.062;2022-11-03T02:19:09;3.50;;;3.15;;
22113;SDS011;11223;49.968;9.062;2022-11-03T02:21:58;4.15;;;3.58;;
22113;SDS011;11223;49.968;9.062;2022-11-03T02:24:50;5.65;;;4.07;;
22113;SDS011;11223;49.968;9.062;2022-11-03T02:27:18;4.63;;;3.80;;
22113;SDS011;11223;49.968;9.062;2022-11-03T02:29:44;4.07;;;3.67;;
22113;SDS011;11223;49.968;9.062;2022-11-03T02:32:23;7.03;;;3.15;;
22113;SDS011;11223;49.968;9.062;2022-11-03T02:37:20;5.80;;;3.35;;
22113;SDS011;11223;49.968;9.062;2022-11-03T02:39:51;5.32;;;3.55;;
22113;SDS011;11223;49.968;9.062;2022-11-03T02:42:21;6.15;;;3.30;;
22113;SDS011;11223;49.968;9.062;2022-11-03T02:44:48;6.10;;;3.47;;
22113;SDS011;11223;49.968;9.062;2022-11-03T02:47:16;4.13;;;2.63;;
22113;SDS011;11223;49.968;9.062;2022-11-03T02:49:46;4.88;;;2.75;;
22113;SDS011;11223;49.968;9.062;2022-11-03T02:52:36;5.88;;;2.90;;
22113;SDS011;11223;49.968;9.062;2022-11-03T02:58:07;5.20;;;3.60;;
22113;SDS011;11223;49.968;9.062;2022-11-03T03:03:47;3.72;;;3.15;;
22113;SDS011;11223;49.968;9.062;2022-11-03T03:06:37;3.60;;;2.78;;
22113;SDS011;11223;49.968;9.062;2022-11-03T03:09:09;6.00;;;3.47;;
22113;SDS011;11223;49.968;9.062;2022-11-03T03:11:41;5.75;;;2.80;;
22113;SDS011;11223;49.968;9.062;2022-11-03T03:14:19;4.25;;;2.92;;
22113;SDS011;11223;49.968;9.062;2022-11-03T03:17:03;4.38;;;2.78;;
22113;SDS011;11223;49.968;9.062;2022-11-03T03:19:58;2.53;;;2.00;;
22113;SDS011;11223;49.968;9.062;2022-11-03T03:22:30;8.20;;;3.63;;
22113;SDS011;11223;49.968;9.062;2022-11-03T03:24:58;9.82;;;3.20;;
22113;SDS011;11223;49.968;9.062;2022-11-03T03:27:30;7.03;;;3.05;;
22113;SDS011;11223;49.968;9.062;2022-11-03T03:30:03;4.65;;;2.63;;
22113;SDS011;11223;49.968;9.062;2022-11-03T03:32:32;3.03;;;2.00;;
22113;SDS011;11223;49.968;9.062;2022-11-03T03:35:02;3.97;;;2.85;;
22113;SDS011;11223;49.968;9.062;2022-11-03T03:37:31;5.85;;;2.67;;
22113;SDS011;11223;49.968;9.062;2022-11-03T03:40:02;4.85;;;2.75;;
22113;SDS011;11223;49.968;9.062;2022-11-03T03:42:31;4.45;;;2.80;;
22113;SDS011;11223;49.968;9.062;2022-11-03T03:45:00;2.80;;;2.10;;
22113;SDS011;11223;49.968;9.062;2022-11-03T03:47:27;6.57;;;3.47;;
22113;SDS011;11223;49.968;9.062;2022-11-03T03:49:55;5.47;;;2.70;;
22113;SDS011;11223;49.968;9.062;2022-11-03T03:52:21;8.20;;;2.97;;
22113;SDS011;11223;49.968;9.062;2022-11-03T03:54:48;7.22;;;2.45;;
22113;SDS011;11223;49.968;9.062;2022-11-03T03:57:14;4.93;;;3.87;;
22113;SDS011;11223;49.968;9.062;2022-11-03T03:59:42;4.60;;;2.72;;
22113;SDS011;11223;49.968;9.062;2022-11-03T04:02:09;5.53;;;3.28;;
22113;SDS011;11223;49.968;9.062;2022-11-03T04:04:36;5.05;;;3.00;;
22113;SDS011;11223;49.968;9.062;2022-11-03T04:07:01;5.00;;;2.73;;
22113;SDS011;11223;49.968;9.062;2022-11-03T04:09:46;7.78;;;2.67;;
22113;SDS011;11223;49.968;9.062;2022-11-03T04:12:11;4.77;;;2.87;;
22113;SDS011;11223;49.968;9.062;2022-11-03T04:14:57;11.07;;;3.85;;
22113;SDS011;11223;49.968;9.062;2022-11-03T04:17:42;5.57;;;3.40;;
22113;SDS011;11223;49.968;9.062;2022-11-03T04:20:28;5.72;;;2.70;;
22113;SDS011;11223;49.968;9.062;2022-11-03T04:23:12;5.70;;;2.75;;
22113;SDS011;11223;49.968;9.062;2022-11-03T04:25:38;4.07;;;2.33;;
22113;SDS011;11223;49.968;9.062;2022-11-03T04:28:07;6.33;;;3.03;;
22113;SDS011;11223;49.968;9.062;2022-11-03T04:30:38;5.78;;;2.78;;
22113;SDS011;11223;49.968;9.062;2022-11-03T04:33:04;5.83;;;4.00;;
22113;SDS011;11223;49.968;9.062;2022-11-03T04:35:39;4.88;;;3.10;;
22113;SDS011;11223;49.968;9.062;2022-11-03T04:40:46;8.57;;;3.25;;
22113;SDS011;11223;49.968;9.062;2022-11-03T04:43:14;12.40;;;3.15;;
22113;SDS011;11223;49.968;9.062;2022-11-03T04:45:43;4.97;;;3.55;;
22113;SDS011;11223;49.968;9.062;2022-11-03T04:48:11;5.20;;;3.53;;
22113;SDS011;11223;49.968;9.062;2022-11-03T04:50:38;5.60;;;2.97;;
22113;SDS011;11223;49.968;9.062;2022-11-03T04:53:08;5.05;;;3.25;;
22113;SDS011;11223;49.968;9.062;2022-11-03T04:55:38;5.40;;;3.00;;
22113;SDS011;11223;49.968;9.062;2022-11-03T04:58:27;7.90;;;4.63;;
22113;SDS011;11223;49.968;9.062;2022-11-03T05:00:57;4.78;;;3.28;;
22113;SDS011;11223;49.968;9.062;2022-11-03T05:03:26;6.03;;;3.60;;
22113;SDS011;11223;49.968;9.062;2022-11-03T05:05:56;7.10;;;5.07;;
22113;SDS011;11223;49.968;9.062;2022-11-03T05:08:22;5.60;;;3.00;;
22113;SDS011;11223;49.968;9.062;2022-11-03T05:10:48;4.45;;;3.55;;
22113;SDS011;11223;49.968;9.062;2022-11-03T05:13:24;3.60;;;3.00;;
22113;SDS011;11223;49.968;9.062;2022-11-03T05:15:52;6.20;;;3.53;;
22113;SDS011;11223;49.968;9.062;2022-11-03T05:18:24;4.85;;;3.00;;
22113;SDS011;11223;49.968;9.062;2022-11-03T05:20:55;7.07;;;2.83;;
22113;SDS011;11223;49.968;9.062;2022-11-03T05:23:24;3.97;;;3.17;;
22113;SDS011;11223;49.968;9.062;2022-11-03T05:25:55;3.75;;;2.70;;
22113;SDS011;11223;49.968;9.062;2022-11-03T05:28:41;5.47;;;2.90;;
22113;SDS011;11223;49.968;9.062;2022-11-03T05:31:14;4.35;;;3.50;;
22113;SDS011;11223;49.968;9.062;2022-11-03T05:33:42;4.63;;;3.58;;
22113;SDS011;11223;49.968;9.062;2022-11-03T05:36:12;3.58;;;3.20;;
22113;SDS011;11223;49.968;9.062;2022-11-03T05:38:40;4.10;;;3.33;;
22113;SDS011;11223;49.968;9.062;2022-11-03T05:41:22;3.97;;;3.53;;
22113;SDS011;11223;49.968;9.062;2022-11-03T05:43:55;7.68;;;4.25;;
22113;SDS011;11223;49.968;9.062;2022-11-03T05:46:26;9.65;;;4.20;;
22113;SDS011;11223;49.968;9.062;2022-11-03T05:48:54;6.50;;;3.97;;
22113;SDS011;11223;49.968;9.062;2022-11-03T05:51:21;7.10;;;3.78;;
22113;SDS011;11223;49.968;9.062;2022-11-03T05:53:50;5.43;;;2.95;;
22113;SDS011;11223;49.968;9.062;2022-11-03T05:56:20;5.60;;;3.25;;
22113;SDS011;11223;49.968;9.062;2022-11-03T05:58:48;4.75;;;3.72;;
22113;SDS011;11223;49.968;9.062;2022-11-03T06:01:18;5.50;;;3.55;;
22113;SDS011;11223;49.968;9.062;2022-11-03T06:03:49;7.25;;;3.13;;
22113;SDS011;11223;49.968;9.062;2022-11-03T06:06:28;5.35;;;3.60;;
22113;SDS011;11223;49.968;9.062;2022-11-03T06:08:59;5.53;;;4.03;;
22113;SDS011;11223;49.968;9.062;2022-11-03T06:11:30;9.48;;;4.50;;
22113;SDS011;11223;49.968;9.062;2022-11-03T06:14:00;4.28;;;3.75;;
22113;SDS011;11223;49.968;9.062;2022-11-03T06:19:18;6.22;;;4.40;;
22113;SDS011;11223;49.968;9.062;2022-11-03T06:21:48;7.03;;;3.92;;
22113;SDS011;11223;49.968;9.062;2022-11-03T06:24:15;7.22;;;3.70;;
22113;SDS011;11223;49.968;9.062;2022-11-03T06:26:43;5.88;;;3.88;;
22113;SDS011;11223;49.968;9.062;2022-11-03T06:29:14;7.97;;;4.38;;
22113;SDS011;11223;49.968;9.062;2022-11-03T06:31:42;5.50;;;4.40;;
22113;SDS011;11223;49.968;9.062;2022-11-03T06:34:17;6.97;;;3.90;;
22113;SDS011;11223;49.968;9.062;2022-11-03T06:36:45;7.28;;;4.13;;
22113;SDS011;11223;49.968;9.062;2022-11-03T06:39:17;4.07;;;3.10;;
22113;SDS011;11223;49.968;9.062;2022-11-03T06:41:46;5.60;;;4.07;;
22113;SDS011;11223;49.968;9.062;2022-11-03T06:44:18;5.57;;;4.40;;
22113;SDS011;11223;49.968;9.062;2022-11-03T06:46:50;8.63;;;4.35;;
22113;SDS011;11223;49.968;9.062;2022-11-03T06:49:22;9.40;;;4.63;;
22113;SDS011;11223;49.968;9.062;2022-11-03T06:51:54;5.13;;;3.70;;
22113;SDS011;11223;49.968;9.062;2022-11-03T06:54:21;5.57;;;4.53;;
22113;SDS011;11223;49.968;9.062;2022-11-03T06:56:47;6.28;;;4.65;;
22113;SDS011;11223;49.968;9.062;2022-11-03T06:59:13;8.23;;;5.70;;
22113;SDS011;11223;49.968;9.062;2022-11-03T07:01:39;5.82;;;4.80;;
22113;SDS011;11223;49.968;9.062;2022-11-03T07:04:13;9.73;;;5.07;;
22113;SDS011;11223;49.968;9.062;2022-11-03T07:06:42;5.22;;;4.07;;
22113;SDS011;11223;49.968;9.062;2022-11-03T07:09:14;5.45;;;4.95;;
22113;SDS011;11223;49.968;9.062;2022-11-03T07:11:45;6.90;;;4.28;;
22113;SDS011;11223;49.968;9.062;2022-11-03T07:14:18;6.50;;;4.65;;
22113;SDS011;11223;49.968;9.062;2022-11-03T07:16:56;6.35;;;4.88;;
22113;SDS011;11223;49.968;9.062;2022-11-03T07:19:32;6.05;;;4.85;;
22113;SDS011;11223;49.968;9.062;2022-11-03T07:22:03;5.75;;;4.05;;
22113;SDS011;11223;49.968;9.062;2022-11-03T07:24:40;5.65;;;4.32;;
22113;SDS011;11223;49.968;9.062;2022-11-03T07:29:37;6.53;;;5.82;;
22113;SDS011;11223;49.968;9.062;2022-11-03T07:32:04;6.40;;;5.43;;
22113;SDS011;11223;49.968;9.062;2022-11-03T07:34:35;10.18;;;5.75;;
22113;SDS011;11223;49.968;9.062;2022-11-03T07:37:01;11.17;;;4.93;;
22113;SDS011;11223;49.968;9.062;2022-11-03T07:39:28;7.17;;;5.47;;
22113;SDS011;11223;49.968;9.062;2022-11-03T07:42:22;8.65;;;5.95;;
22113;SDS011;11223;49.968;9.062;2022-11-03T07:44:48;5.25;;;4.85;;
22113;SDS011;11223;49.968;9.062;2022-11-03T07:47:18;7.82;;;5.13;;
22113;SDS011;11223;49.968;9.062;2022-11-03T07:49:45;7.78;;;5.65;;
22113;SDS011;11223;49.968;9.062;2022-11-03T07:52:13;6.70;;;4.28;;
22113;SDS011;11223;49.968;9.062;2022-11-03T07:54:42;7.55;;;5.00;;
22113;SDS011;11223;49.968;9.062;2022-11-03T07:57:18;5.57;;;5.07;;
22113;SDS011;11223;49.968;9.062;2022-11-03T07:59:52;6.60;;;5.30;;
22113;SDS011;11223;49.968;9.062;2022-11-03T08:02:42;4.80;;;4.40;;
22113;SDS011;11223;49.968;9.062;2022-11-03T08:05:17;5.78;;;5.28;;
22113;SDS011;11223;49.968;9.062;2022-11-03T08:07:42;6.97;;;5.10;;
22113;SDS011;11223;49.968;9.062;2022-11-03T08:10:08;8.30;;;6.97;;
22113;SDS011;11223;49.968;9.062;2022-11-03T08:12:34;7.00;;;5.85;;
22113;SDS011;11223;49.968;9.062;2022-11-03T08:15:00;6.77;;;6.17;;
22113;SDS011;11223;49.968;9.062;2022-11-03T08:17:25;7.77;;;6.00;;
22113;SDS011;11223;49.968;9.062;2022-11-03T08:19:51;7.33;;;5.67;;
22113;SDS011;11223;49.968;9.062;2022-11-03T08:22:17;5.83;;;5.23;;
22113;SDS011;11223;49.968;9.062;2022-11-03T08:24:42;6.50;;;5.90;;
22113;SDS011;11223;49.968;9.062;2022-11-03T08:27:08;5.17;;;4.70;;
22113;SDS011;11223;49.968;9.062;2022-11-03T08:29:34;5.00;;;4.40;;
22113;SDS011;11223;49.968;9.062;2022-11-03T08:31:59;5.03;;;4.63;;
22113;SDS011;11223;49.968;9.062;2022-11-03T08:34:25;4.77;;;4.37;;
22113;SDS011;11223;49.968;9.062;2022-11-03T08:36:51;6.23;;;5.17;;
22113;SDS011;11223;49.968;9.062;2022-11-03T08:39:16;4.50;;;4.20;;
22113;SDS011;11223;49.968;9.062;2022-11-03T08:41:42;6.10;;;4.60;;
22113;SDS011;11223;49.968;9.062;2022-11-03T08:44:07;4.57;;;3.93;;
22113;SDS011;11223;49.968;9.062;2022-11-03T08:46:33;5.30;;;4.80;;
22113;SDS011;11223;49.968;9.062;2022-11-03T08:48:59;4.53;;;4.13;;
22113;SDS011;11223;49.968;9.062;2022-11-03T08:51:24;5.00;;;3.90;;
22113;SDS011;11223;49.968;9.062;2022-11-03T08:53:50;5.87;;;4.33;;
22113;SDS011;11223;49.968;9.062;2022-11-03T08:56:18;5.53;;;4.45;;
22113;SDS011;11223;49.968;9.062;2022-11-03T08:58:44;4.53;;;4.05;;
22113;SDS011;11223;49.968;9.062;2022-11-03T09:01:10;4.38;;;3.80;;
22113;SDS011;11223;49.968;9.062;2022-11-03T09:03:37;8.23;;;4.40;;
22113;SDS011;11223;49.968;9.062;2022-11-03T09:06:02;4.10;;;3.53;;
22113;SDS011;11223;49.968;9.062;2022-11-03T09:08:28;3.93;;;3.57;;
22113;SDS011;11223;49.968;9.062;2022-11-03T09:10:54;4.13;;;3.40;;
22113;SDS011;11223;49.968;9.062;2022-11-03T09:13:19;3.57;;;2.87;;
22113;SDS011;11223;49.968;9.062;2022-11-03T09:15:45;5.20;;;3.13;;
22113;SDS011;11223;49.968;9.062;2022-11-03T09:18:10;4.90;;;3.40;;
22113;SDS011;11223;49.968;9.062;2022-11-03T09:20:36;4.00;;;3.57;;
22113;SDS011;11223;49.968;9.062;2022-11-03T09:23:02;3.07;;;2.50;;
22113;SDS011;11223;49.968;9.062;2022-11-03T09:25:27;5.77;;;3.20;;
22113;SDS011;11223;49.968;9.062;2022-11-03T09:27:53;2.70;;;2.30;;
22113;SDS011;11223;49.968;9.062;2022-11-03T09:30:18;7.43;;;3.70;;
22113;SDS011;11223;49.968;9.062;2022-11-03T09:32:45;3.97;;;3.05;;
22113;SDS011;11223;49.968;9.062;2022-11-03T09:35:10;2.97;;;2.20;;
22113;SDS011;11223;49.968;9.062;2022-11-03T09:37:38;2.88;;;2.47;;
22113;SDS011;11223;49.968;9.062;2022-11-03T09:40:04;4.00;;;2.85;;
22113;SDS011;11223;49.968;9.062;2022-11-03T09:42:31;3.55;;;2.70;;
22113;SDS011;11223;49.968;9.062;2022-11-03T09:44:58;4.45;;;3.20;;
22113;SDS011;11223;49.968;9.062;2022-11-03T09:47:40;3.45;;;3.15;;
22113;SDS011;11223;49.968;9.062;2022-11-03T09:50:12;4.70;;;3.05;;
22113;SDS011;11223;49.968;9.062;2022-11-03T09:52:40;4.72;;;3.00;;
22113;SDS011;11223;49.968;9.062;2022-11-03T09:55:11;2.87;;;2.67;;
22113;SDS011;11223;49.968;9.062;2022-11-03T09:57:39;4.85;;;3.47;;
22113;SDS011;11223;49.968;9.062;2022-11-03T10:00:07;4.63;;;3.33;;
22113;SDS011;11223;49.968;9.062;2022-11-03T10:02:43;4.00;;;2.60;;
22113;SDS011;11223;49.968;9.062;2022-11-03T10:05:11;2.80;;;2.50;;
22113;SDS011;11223;49.968;9.062;2022-11-03T10:07:39;3.95;;;3.53;;
22113;SDS011;11223;49.968;9.062;2022-11-03T10:10:12;5.60;;;3.05;;
22113;SDS011;11223;49.968;9.062;2022-11-03T10:12:40;4.18;;;2.88;;
22113;SDS011;11223;49.968;9.062;2022-11-03T10:15:16;3.67;;;2.83;;
22113;SDS011;11223;49.968;9.062;2022-11-03T10:17:44;3.80;;;3.42;;
22113;SDS011;11223;49.968;9.062;2022-11-03T10:20:14;4.70;;;2.85;;
22113;SDS011;11223;49.968;9.062;2022-11-03T10:22:42;4.70;;;3.20;;
22113;SDS011;11223;49.968;9.062;2022-11-03T10:25:29;4.15;;;2.90;;
22113;SDS011;11223;49.968;9.062;2022-11-03T10:35:54;3.13;;;2.70;;
22113;SDS011;11223;49.968;9.062;2022-11-03T10:40:51;4.03;;;3.10;;
22113;SDS011;11223;49.968;9.062;2022-11-03T10:43:17;4.13;;;2.60;;
22113;SDS011;11223;49.968;9.062;2022-11-03T10:45:43;3.70;;;3.40;;
22113;SDS011;11223;49.968;9.062;2022-11-03T10:48:09;15.23;;;3.70;;
22113;SDS011;11223;49.968;9.062;2022-11-03T10:50:35;7.43;;;3.50;;
22113;SDS011;11223;49.968;9.062;2022-11-03T10:53:10;4.07;;;3.03;;
22113;SDS011;11223;49.968;9.062;2022-11-03T10:55:41;2.63;;;2.40;;
22113;SDS011;11223;49.968;9.062;2022-11-03T10:58:06;4.27;;;3.20;;
22113;SDS011;11223;49.968;9.062;2022-11-03T11:00:32;3.87;;;2.80;;
22113;SDS011;11223;49.968;9.062;2022-11-03T11:02:59;3.20;;;3.00;;
22113;SDS011;11223;49.968;9.062;2022-11-03T11:05:25;4.57;;;3.72;;
22113;SDS011;11223;49.968;9.062;2022-11-03T11:07:52;5.17;;;2.87;;
22113;SDS011;11223;49.968;9.062;2022-11-03T11:10:22;4.47;;;3.55;;
22113;SDS011;11223;49.968;9.062;2022-11-03T11:15:41;4.20;;;3.10;;
22113;SDS011;11223;49.968;9.062;2022-11-03T11:18:08;5.15;;;3.33;;
22113;SDS011;11223;49.968;9.062;2022-11-03T11:20:38;3.90;;;3.50;;
22113;SDS011;11223;49.968;9.062;2022-11-03T11:31:33;3.75;;;3.35;;
22113;SDS011;11223;49.968;9.062;2022-11-03T11:36:34;6.07;;;3.10;;
22113;SDS011;11223;49.968;9.062;2022-11-03T11:39:01;4.30;;;3.90;;
22113;SDS011;11223;49.968;9.062;2022-11-03T11:49:47;4.13;;;3.70;;
22113;SDS011;11223;49.968;9.062;2022-11-03T11:52:24;9.25;;;3.75;;
22113;SDS011;11223;49.968;9.062;2022-11-03T11:54:49;3.40;;;3.10;;
22113;SDS011;11223;49.968;9.062;2022-11-03T11:57:16;3.80;;;3.00;;
22113;SDS011;11223;49.968;9.062;2022-11-03T11:59:44;5.30;;;3.45;;
22113;SDS011;11223;49.968;9.062;2022-11-03T12:02:18;3.42;;;3.13;;
22113;SDS011;11223;49.968;9.062;2022-11-03T12:04:48;3.85;;;3.55;;
22113;SDS011;11223;49.968;9.062;2022-11-03T12:07:30;5.75;;;3.55;;
22113;SDS011;11223;49.968;9.062;2022-11-03T12:10:05;4.75;;;3.40;;
22113;SDS011;11223;49.968;9.062;2022-11-03T12:12:41;10.57;;;4.45;;
22113;SDS011;11223;49.968;9.062;2022-11-03T12:21:06;4.50;;;4.13;;
22113;SDS011;11223;49.968;9.062;2022-11-03T12:23:51;5.32;;;3.38;;
22113;SDS011;11223;49.968;9.062;2022-11-03T12:26:18;4.13;;;3.45;;
22113;SDS011;11223;49.968;9.062;2022-11-03T12:29:05;4.20;;;3.67;;
22113;SDS011;11223;49.968;9.062;2022-11-03T12:31:31;3.60;;;2.80;;
22113;SDS011;11223;49.968;9.062;2022-11-03T12:33:57;4.30;;;3.90;;
22113;SDS011;11223;49.968;9.062;2022-11-03T12:36:23;4.83;;;4.07;;
22113;SDS011;11223;49.968;9.062;2022-11-03T12:38:49;4.40;;;3.60;;
22113;SDS011;11223;49.968;9.062;2022-11-03T12:41:14;4.77;;;3.20;;
22113;SDS011;11223;49.968;9.062;2022-11-03T12:43:49;5.00;;;4.18;;
22113;SDS011;11223;49.968;9.062;2022-11-03T12:46:16;3.42;;;3.20;;
22113;SDS011;11223;49.968;9.062;2022-11-03T12:48:43;3.72;;;3.42;;
22113;SDS011;11223;49.968;9.062;2022-11-03T12:51:20;4.70;;;4.10;;
22113;SDS011;11223;49.968;9.062;2022-11-03T12:53:49;4.13;;;3.70;;
22113;SDS011;11223;49.968;9.062;2022-11-03T12:56:16;5.03;;;3.67;;
22113;SDS011;11223;49.968;9.062;2022-11-03T12:58:42;9.60;;;5.13;;
22113;SDS011;11223;49.968;9.062;2022-11-03T13:01:08;4.80;;;3.10;;
22113;SDS011;11223;49.968;9.062;2022-11-03T13:03:34;5.43;;;3.90;;
22113;SDS011;11223;49.968;9.062;2022-11-03T13:06:01;6.07;;;3.55;;
22113;SDS011;11223;49.968;9.062;2022-11-03T13:08:32;5.20;;;3.80;;
22113;SDS011;11223;49.968;9.062;2022-11-03T13:10:58;5.13;;;4.10;;
22113;SDS011;11223;49.968;9.062;2022-11-03T13:23:38;3.65;;;3.35;;
22113;SDS011;11223;49.968;9.062;2022-11-03T13:26:04;5.28;;;3.65;;
22113;SDS011;11223;49.968;9.062;2022-11-03T13:28:48;6.33;;;4.27;;
22113;SDS011;11223;49.968;9.062;2022-11-03T13:34:35;4.43;;;4.03;;
22113;SDS011;11223;49.968;9.062;2022-11-03T13:37:01;5.90;;;4.07;;
22113;SDS011;11223;49.968;9.062;2022-11-03T13:42:28;4.80;;;3.95;;
22113;SDS011;11223;49.968;9.062;2022-11-03T13:44:54;7.40;;;4.70;;
22113;SDS011;11223;49.968;9.062;2022-11-03T13:47:27;4.85;;;3.80;;
22113;SDS011;11223;49.968;9.062;2022-11-03T13:50:01;4.28;;;3.75;;
22113;SDS011;11223;49.968;9.062;2022-11-03T13:52:27;5.83;;;3.90;;
22113;SDS011;11223;49.968;9.062;2022-11-03T13:54:53;4.07;;;3.73;;
22113;SDS011;11223;49.968;9.062;2022-11-03T13:57:18;6.03;;;5.23;;
22113;SDS011;11223;49.968;9.062;2022-11-03T13:59:45;5.13;;;4.72;;
22113;SDS011;11223;49.968;9.062;2022-11-03T14:02:11;3.53;;;3.23;;
22113;SDS011;11223;49.968;9.062;2022-11-03T14:04:37;3.95;;;3.28;;
22113;SDS011;11223;49.968;9.062;2022-11-03T14:07:06;5.47;;;3.45;;
22113;SDS011;11223;49.968;9.062;2022-11-03T14:09:32;4.03;;;3.63;;
22113;SDS011;11223;49.968;9.062;2022-11-03T14:11:57;3.73;;;3.23;;
22113;SDS011;11223;49.968;9.062;2022-11-03T14:17:30;4.70;;;3.50;;
22113;SDS011;11223;49.968;9.062;2022-11-03T14:19:56;3.40;;;3.10;;
22113;SDS011;11223;49.968;9.062;2022-11-03T14:22:22;4.00;;;3.60;;
22113;SDS011;11223;49.968;9.062;2022-11-03T14:24:48;4.23;;;3.17;;
22113;SDS011;11223;49.968;9.062;2022-11-03T14:27:15;4.22;;;3.08;;
22113;SDS011;11223;49.968;9.062;2022-11-03T14:29:42;4.70;;;3.58;;
22113;SDS011;11223;49.968;9.062;2022-11-03T14:32:08;5.32;;;3.47;;
22113;SDS011;11223;49.968;9.062;2022-11-03T14:34:34;4.88;;;4.05;;
22113;SDS011;11223;49.968;9.062;2022-11-03T14:37:00;3.53;;;3.23;;
22113;SDS011;11223;49.968;9.062;2022-11-03T14:39:26;4.67;;;3.87;;
22113;SDS011;11223;49.968;9.062;2022-11-03T14:41:52;22.57;;;19.73;;
22113;SDS011;11223;49.968;9.062;2022-11-03T14:44:33;17.15;;;15.35;;
22113;SDS011;11223;49.968;9.062;2022-11-03T14:47:03;8.95;;;8.05;;
22113;SDS011;11223;49.968;9.062;2022-11-03T14:49:30;7.88;;;5.05;;
22113;SDS011;11223;49.968;9.062;2022-11-03T14:51:57;5.47;;;4.40;;
22113;SDS011;11223;49.968;9.062;2022-11-03T14:54:24;5.03;;;4.10;;
22113;SDS011;11223;49.968;9.062;2022-11-03T14:56:49;4.20;;;3.80;;
22113;SDS011;11223;49.968;9.062;2022-11-03T14:59:15;6.03;;;5.15;;
22113;SDS011;11223;49.968;9.062;2022-11-03T15:01:41;7.00;;;4.33;;
22113;SDS011;11223;49.968;9.062;2022-11-03T15:04:07;5.00;;;4.40;;
22113;SDS011;11223;49.968;9.062;2022-11-03T15:06:33;4.23;;;3.70;;
22113;SDS011;11223;49.968;9.062;2022-11-03T15:08:59;4.75;;;4.35;;
22113;SDS011;11223;49.968;9.062;2022-11-03T15:17:34;5.20;;;4.00;;
22113;SDS011;11223;49.968;9.062;2022-11-03T15:19:59;4.37;;;3.97;;
22113;SDS011;11223;49.968;9.062;2022-11-03T15:22:25;5.80;;;4.07;;
22113;SDS011;11223;49.968;9.062;2022-11-03T15:24:51;5.10;;;3.93;;
22113;SDS011;11223;49.968;9.062;2022-11-03T15:27:16;5.17;;;3.90;;
22113;SDS011;11223;49.968;9.062;2022-11-03T15:29:42;7.57;;;3.70;;
22113;SDS011;11223;49.968;9.062;2022-11-03T15:32:14;4.83;;;3.80;;
22113;SDS011;11223;49.968;9.062;2022-11-03T15:34:39;4.45;;;4.05;;
22113;SDS011;11223;49.968;9.062;2022-11-03T15:43:42;4.00;;;3.38;;
22113;SDS011;11223;49.968;9.062;2022-11-03T15:46:09;4.70;;;3.75;;
22113;SDS011;11223;49.968;9.062;2022-11-03T15:48:35;6.82;;;4.80;;
22113;SDS011;11223;49.968;9.062;2022-11-03T15:51:01;5.10;;;4.05;;
22113;SDS011;11223;49.968;9.062;2022-11-03T15:53:27;4.90;;;4.07;;
22113;SDS011;11223;49.968;9.062;2022-11-03T15:55:53;4.47;;;4.07;;
22113;SDS011;11223;49.968;9.062;2022-11-03T15:58:19;4.67;;;3.70;;
22113;SDS011;11223;49.968;9.062;2022-11-03T16:00:44;4.53;;;3.70;;
22113;SDS011;11223;49.968;9.062;2022-11-03T16:03:10;4.20;;;3.80;;
22113;SDS011;11223;49.968;9.062;2022-11-03T16:05:35;4.70;;;4.30;;
22113;SDS011;11223;49.968;9.062;2022-11-03T16:08:01;4.50;;;4.10;;
22113;SDS011;11223;49.968;9.062;2022-11-03T16:10:26;5.07;;;4.37;;
22113;SDS011;11223;49.968;9.062;2022-11-03T16:12:52;6.70;;;4.63;;
22113;SDS011;11223;49.968;9.062;2022-11-03T16:15:18;7.50;;;5.73;;
22113;SDS011;11223;49.968;9.062;2022-11-03T16:17:43;4.90;;;4.50;;
22113;SDS011;11223;49.968;9.062;2022-11-03T16:20:09;5.97;;;4.70;;
22113;SDS011;11223;49.968;9.062;2022-11-03T16:22:35;6.15;;;5.32;;
22113;SDS011;11223;49.968;9.062;2022-11-03T16:35:15;6.40;;;5.80;;
22113;SDS011;11223;49.968;9.062;2022-11-03T16:37:41;7.10;;;6.40;;
22113;SDS011;11223;49.968;9.062;2022-11-03T16:43:19;5.95;;;4.95;;